Startpagina
METAR-TAF:

METAR-TAF

Vliegvelden :

Huesca, Spanje

breedte: 42-04-32N, lengte: 0-18-58W, hoogte: 539 m

Actueel weer

Dit bericht is 31 minuten geleden gemaakt, om 19:30 UTC
Wind 10 kt uit het oosten
Temperatuur 16°C
Vochtigheid 88%
Druk 1014 hPa
Zicht 10 km of meer
geen wolken onder 1500 m en geen cumulonimbus

METAR: LEHC 311930Z AUTO 08010KT CAVOK 16/14 Q1014

Tijdstip: 22:01 (20:01 UTC)

Verwachting

Dit bericht is 2 uur en het 38 minuten geleden gemaakt, om 17:23 UTC
Verwachting geldig van 31 om 17 UTC tot 01 om 15 UTC
Wind 10 kt uit het oostzuidoosten
Zicht 10 km of meer
Weinig wolken op 5000 ft
Tijdelijke
van 31 om 17 UTC tot 31 om 21 UTC
Wind 8 kt uit variabele richting
Zicht: 4000 m
Verspreide wolken op 5000 ft, Cumulonimbus.
onweer, regen
Tijdelijke
van 01 om 00 UTC tot 01 om 05 UTC
Wind 8 kt uit het oostnoordoosten

TAF: LEHC 311723Z 3117/0115 12010KT 9999 FEW050 TX26/0113Z TN16/0106Z TEMPO 3117/3121 VRB08KT 4000 TSRA SCT050CB TEMPO 0100/0105 06008KT

Waarnemingen en weersverwachtingen van meer dan 4000 vliegvelden (METAR en TAF).

De beschikbare stations zijn de gele en rode punten op de kaart.

Ga met uw muis naar het station om de naam te zien.

Klik dan om waarnemingen en weersverwachtingen te zien.

kaart wijzigen: klik op de groene knoppen met een zwart kruis om in te zoomen, op de groene knop met een streepje om uit te zoomen of op de groene pijlen voor aangrenzende kaarten.


METAR-TAF: